Thunder radar more information blitzortung!


avis per Pluja more information rain snow radar


Visita la nostra xarxa de llocs de meteo:

Template documentation
and downloads

And another site



Rain From: 18-10-2018 10:00 Until: 16:59 warning for: Rain Level: Yellow info button

Pagina Historial Weather Underground text

Diari Resum Novembre 20, 2017 Unitats:  Tant    Imperial   Mètric
« Previous Dia
SegĂźent Dia »
Diari Setmana Mensual Anual Personalitzada
  Maxima: Minima: Media:
Temperatura: TemperatureC °F /  -17.8 °C 4.1 °F /  -15.5 °C 11.3 °F /  -11.5 °C
Punt de rosada: DewpointC °F /  -17.8 °C -1.1 °F /  -18.4 °C 2.4 °F /  -16.4 °C
Humitat: Humidity % 45 % 55 %
Wind Speed: WindSpeedKMH mph /  0 km/h - 2.4 mph /  3.9 km/h
RĂ fegues de vent: WindSpeedGustKMH mph /  0 km/h - -
Vent:- - South
Pression baro: PressurehPa in /  0 hPa 1020.9 in /  34567.7 hPa -
Precipitacions: 0.0 in /  0 mm    
Historical Graphs
 
 
Dades de taula per Novembre 20, 2017
Temps Temperatura Punt de rosada Pression baro Vent Wind Speed RĂ fegues de vent Humitat Rainfall Rate (Hourly)
TemperatureC °F /  -17.8 °C DewpointC °F /  -17.8 °C PressurehPa in /  0 hPa Calm     Humidity % HourlyPrecipMM in /  0 mm
00:04 7.4 °F /  -13.7 °C 0.6 °F /  -17.4 °C 1023.9 in /  34669.3 hPa Calm     62 % 0.0 in /  0 mm
00:10 4.4 °F /  -15.3 °C -0.8 °F /  -18.2 °C 1023.9 in /  34669.3 hPa Calm   3.2 mph /  5.1 km/h 69 % 0.0 in /  0 mm
00:20 4.3 °F /  -15.4 °C -0.9 °F /  -18.3 °C 1023.9 in /  34669.3 hPa Calm   3.2 mph /  5.1 km/h 69 % 0.0 in /  0 mm
00:30 4.3 °F /  -15.4 °C -0.9 °F /  -18.3 °C 1022.9 in /  34635.4 hPa Calm   1.6 mph /  2.6 km/h 69 % 0.0 in /  0 mm
00:40 4.1 °F /  -15.5 °C -1.1 °F /  -18.4 °C 1022.9 in /  34635.4 hPa Calm   3.2 mph /  5.1 km/h 69 % 0.0 in /  0 mm
00:50 4.2 °F /  -15.4 °C -1.0 °F /  -18.3 °C 1022.9 in /  34635.4 hPa WNW 1.6 mph /  2.6 km/h 3.2 mph /  5.1 km/h 69 % 0.0 in /  0 mm
01:00 4.2 °F /  -15.4 °C -1.0 °F /  -18.3 °C 1023.9 in /  34669.3 hPa Calm   3.2 mph /  5.1 km/h 69 % 0.0 in /  0 mm
01:30 4.2 °F /  -15.4 °C -0.8 °F /  -18.2 °C 1023.9 in /  34669.3 hPa NW 1.6 mph /  2.6 km/h 3.2 mph /  5.1 km/h 70 % 0.0 in /  0 mm
01:40 4.3 °F /  -15.4 °C -0.7 °F /  -18.2 °C 1022.9 in /  34635.4 hPa Calm   3.2 mph /  5.1 km/h 70 % 0.0 in /  0 mm
01:50 4.3 °F /  -15.4 °C -0.5 °F /  -18.1 °C 1022.9 in /  34635.4 hPa Calm   1.6 mph /  2.6 km/h 71 % 0.0 in /  0 mm
02:00 4.3 °F /  -15.4 °C -0.5 °F /  -18.1 °C 1022.9 in /  34635.4 hPa Calm   3.2 mph /  5.1 km/h 71 % 0.0 in /  0 mm
02:10 4.3 °F /  -15.4 °C -0.7 °F /  -18.2 °C 1022.9 in /  34635.4 hPa NNE 1.6 mph /  2.6 km/h 3.2 mph /  5.1 km/h 70 % 0.0 in /  0 mm
02:20 4.5 °F /  -15.3 °C -0.5 °F /  -18.1 °C 1022.9 in /  34635.4 hPa WNW 1.6 mph /  2.6 km/h 1.6 mph /  2.6 km/h 70 % 0.0 in /  0 mm
02:30 4.7 °F /  -15.2 °C -0.1 °F /  -17.8 °C 1023.9 in /  34669.3 hPa Calm   3.2 mph /  5.1 km/h 71 % 0.0 in /  0 mm
02:40 5.0 °F /  -15 °C 0.0 °F /  -17.8 °C 1022.9 in /  34635.4 hPa WSW 1.6 mph /  2.6 km/h 3.2 mph /  5.1 km/h 70 % 0.0 in /  0 mm
02:50 5.4 °F /  -14.8 °C 0.4 °F /  -17.6 °C 1022.9 in /  34635.4 hPa WSW 3.2 mph /  5.1 km/h 3.2 mph /  5.1 km/h 70 % 0.0 in /  0 mm
03:00 5.7 °F /  -14.6 °C 0.7 °F /  -17.4 °C 1023.9 in /  34669.3 hPa SW 1.6 mph /  2.6 km/h 3.2 mph /  5.1 km/h 70 % 0.0 in /  0 mm
03:10 6.2 °F /  -14.3 °C 0.9 °F /  -17.3 °C 1023.9 in /  34669.3 hPa SW 1.6 mph /  2.6 km/h 1.6 mph /  2.6 km/h 69 % 0.0 in /  0 mm
03:30 7.6 °F /  -13.6 °C 1.8 °F /  -16.8 °C 1023.9 in /  34669.3 hPa SSE 1.6 mph /  2.6 km/h 1.6 mph /  2.6 km/h 67 % 0.0 in /  0 mm
03:40 7.6 °F /  -13.6 °C 1.7 °F /  -16.8 °C 1023.9 in /  34669.3 hPa East 3.2 mph /  5.1 km/h 3.2 mph /  5.1 km/h 66 % 0.0 in /  0 mm
03:50 8.1 °F /  -13.3 °C 1.9 °F /  -16.7 °C 1023.9 in /  34669.3 hPa NE 1.6 mph /  2.6 km/h 3.2 mph /  5.1 km/h 65 % 0.0 in /  0 mm
04:00 8.8 °F /  -12.9 °C 2.3 °F /  -16.5 °C 1023.9 in /  34669.3 hPa NE 1.6 mph /  2.6 km/h 6.4 mph /  10.3 km/h 64 % 0.0 in /  0 mm
04:10 8.6 °F /  -13 °C 1.9 °F /  -16.7 °C 1023.9 in /  34669.3 hPa NE 3.2 mph /  5.1 km/h 4.8 mph /  7.7 km/h 63 % 0.0 in /  0 mm
04:20 9.5 °F /  -12.5 °C 2.8 °F /  -16.2 °C 1023.9 in /  34669.3 hPa Calm   3.2 mph /  5.1 km/h 63 % 0.0 in /  0 mm
04:30 10.0 °F /  -12.2 °C 3.1 °F /  -16.1 °C 1023.9 in /  34669.3 hPa ENE 1.6 mph /  2.6 km/h 3.2 mph /  5.1 km/h 62 % 0.0 in /  0 mm
04:40 10.7 °F /  -11.8 °C 3.7 °F /  -15.7 °C 1024.9 in /  34703.1 hPa ENE 1.6 mph /  2.6 km/h 3.2 mph /  5.1 km/h 62 % 0.0 in /  0 mm
10:41 11.4 °F /  -11.4 °C 3.9 °F /  -15.6 °C 1024.9 in /  34703.1 hPa ESE 3.7 mph /  6 km/h 3.7 mph /  6 km/h 60 % 0.0 in /  0 mm
10:46 11.4 °F /  -11.4 °C 3.9 °F /  -15.6 °C 1024.9 in /  34703.1 hPa East 4.2 mph /  6.8 km/h 4.2 mph /  6.8 km/h 60 % 0.0 in /  0 mm
11:01 11.6 °F /  -11.3 °C 3.8 °F /  -15.7 °C 1024.9 in /  34703.1 hPa ENE 3.7 mph /  6 km/h 3.7 mph /  6 km/h 59 % 0.0 in /  0 mm
11:06 11.6 °F /  -11.3 °C 3.6 °F /  -15.8 °C 1024.9 in /  34703.1 hPa NNE 3.7 mph /  6 km/h 3.7 mph /  6 km/h 58 % 0.0 in /  0 mm
11:16 11.9 °F /  -11.2 °C 3.9 °F /  -15.6 °C 1024.9 in /  34703.1 hPa NE 3.7 mph /  6 km/h 3.7 mph /  6 km/h 58 % 0.0 in /  0 mm
11:21 12.2 °F /  -11 °C 4.2 °F /  -15.4 °C 1024.9 in /  34703.1 hPa NNE 1.9 mph /  3.1 km/h 1.9 mph /  3.1 km/h 58 % 0.0 in /  0 mm
11:36 12.7 °F /  -10.7 °C 4.4 °F /  -15.3 °C 1024.9 in /  34703.1 hPa ENE 3.9 mph /  6.3 km/h 3.9 mph /  6.3 km/h 57 % 0.0 in /  0 mm
11:46 12.9 °F /  -10.6 °C 4.6 °F /  -15.2 °C 1024.9 in /  34703.1 hPa NE 3.7 mph /  6 km/h 3.7 mph /  6 km/h 57 % 0.0 in /  0 mm
11:51 12.9 °F /  -10.6 °C 4.6 °F /  -15.2 °C 1024.9 in /  34703.1 hPa ENE 3.7 mph /  6 km/h 3.7 mph /  6 km/h 57 % 0.0 in /  0 mm
12:11 13.6 °F /  -10.2 °C 5.0 °F /  -15 °C 1024.9 in /  34703.1 hPa NW 4.2 mph /  6.8 km/h 4.2 mph /  6.8 km/h 56 % 0.0 in /  0 mm
12:16 13.7 °F /  -10.2 °C 5.1 °F /  -14.9 °C 1024.9 in /  34703.1 hPa NNW 3.7 mph /  6 km/h 3.7 mph /  6 km/h 56 % 0.0 in /  0 mm
12:21 14.0 °F /  -10 °C 5.3 °F /  -14.8 °C 1023.9 in /  34669.3 hPa NNE 2.3 mph /  3.7 km/h   56 % 0.0 in /  0 mm
12:26 14.2 °F /  -9.9 °C 5.3 °F /  -14.8 °C 1023.9 in /  34669.3 hPa NNW 1.9 mph /  3.1 km/h   55 % 0.0 in /  0 mm
12:31 14.1 °F /  -9.9 °C 5.2 °F /  -14.9 °C 1023.9 in /  34669.3 hPa ENE 4.2 mph /  6.8 km/h 4.2 mph /  6.8 km/h 55 % 0.0 in /  0 mm
12:36 14.1 °F /  -9.9 °C 4.9 °F /  -15.1 °C 1022.9 in /  34635.4 hPa NE 3.7 mph /  6 km/h   54 % 0.0 in /  0 mm
12:41 14.2 °F /  -9.9 °C 5.0 °F /  -15 °C 1022.9 in /  34635.4 hPa NNE 4.2 mph /  6.8 km/h 4.2 mph /  6.8 km/h 54 % 0.0 in /  0 mm
12:56 14.4 °F /  -9.8 °C 4.9 °F /  -15.1 °C 1022.9 in /  34635.4 hPa East 5.6 mph /  9 km/h 5.6 mph /  9 km/h 53 % 0.0 in /  0 mm
13:21 15.0 °F /  -9.4 °C 5.5 °F /  -14.7 °C 1022.9 in /  34635.4 hPa NE 3.9 mph /  6.3 km/h   53 % 0.0 in /  0 mm
13:36 15.0 °F /  -9.4 °C 5.2 °F /  -14.9 °C 1022.9 in /  34635.4 hPa ENE 5.6 mph /  9 km/h 5.6 mph /  9 km/h 52 % 0.0 in /  0 mm
13:41 15.2 °F /  -9.3 °C 5.4 °F /  -14.8 °C 1022.9 in /  34635.4 hPa NNE 3.9 mph /  6.3 km/h 3.9 mph /  6.3 km/h 52 % 0.0 in /  0 mm
13:51 15.3 °F /  -9.3 °C 5.2 °F /  -14.9 °C 1022.9 in /  34635.4 hPa ESE 7.4 mph /  11.9 km/h 7.4 mph /  11.9 km/h 51 % 0.0 in /  0 mm
13:56 15.4 °F /  -9.2 °C 5.3 °F /  -14.8 °C 1022.9 in /  34635.4 hPa ENE 3.7 mph /  6 km/h 3.7 mph /  6 km/h 51 % 0.0 in /  0 mm
14:01 15.4 °F /  -9.2 °C 5.3 °F /  -14.8 °C 1022.9 in /  34635.4 hPa NNE 5.3 mph /  8.5 km/h 5.3 mph /  8.5 km/h 51 % 0.0 in /  0 mm
14:06 15.3 °F /  -9.3 °C 5.2 °F /  -14.9 °C 1022.9 in /  34635.4 hPa NNW 3.7 mph /  6 km/h 3.7 mph /  6 km/h 51 % 0.0 in /  0 mm
14:11 15.5 °F /  -9.2 °C 5.1 °F /  -14.9 °C 1022.9 in /  34635.4 hPa NE 3.7 mph /  6 km/h 3.7 mph /  6 km/h 50 % 0.0 in /  0 mm
14:16 15.5 °F /  -9.2 °C 5.1 °F /  -14.9 °C 1022.9 in /  34635.4 hPa East 3.7 mph /  6 km/h 3.7 mph /  6 km/h 50 % 0.0 in /  0 mm
14:21 15.6 °F /  -9.1 °C 4.9 °F /  -15.1 °C 1022.9 in /  34635.4 hPa ESE 9.3 mph /  15 km/h 9.3 mph /  15 km/h 49 % 0.0 in /  0 mm
14:36 16.1 °F /  -8.8 °C 5.4 °F /  -14.8 °C 1022.9 in /  34635.4 hPa ESE 3.7 mph /  6 km/h 3.7 mph /  6 km/h 49 % 0.0 in /  0 mm
14:42 16.0 °F /  -8.9 °C 5.3 °F /  -14.8 °C 1022.9 in /  34635.4 hPa East 3.7 mph /  6 km/h 3.7 mph /  6 km/h 49 % 0.0 in /  0 mm
14:52 15.9 °F /  -8.9 °C 4.9 °F /  -15.1 °C 1021.9 in /  34601.5 hPa ESE 5.6 mph /  9 km/h 5.6 mph /  9 km/h 48 % 0.0 in /  0 mm
14:57 16.0 °F /  -8.9 °C 5.0 °F /  -15 °C 1021.9 in /  34601.5 hPa ESE 5.6 mph /  9 km/h 5.6 mph /  9 km/h 48 % 0.0 in /  0 mm
15:02 16.1 °F /  -8.8 °C 5.1 °F /  -14.9 °C 1022.9 in /  34635.4 hPa SSE 1.9 mph /  3.1 km/h   48 % 0.0 in /  0 mm
15:07 16.1 °F /  -8.8 °C 5.1 °F /  -14.9 °C 1022.9 in /  34635.4 hPa NE 2.6 mph /  4.2 km/h 2.6 mph /  4.2 km/h 48 % 0.0 in /  0 mm
15:12 16.1 °F /  -8.8 °C 4.8 °F /  -15.1 °C 1022.9 in /  34635.4 hPa East 5.6 mph /  9 km/h 5.6 mph /  9 km/h 47 % 0.0 in /  0 mm
15:17 16.1 °F /  -8.8 °C 4.8 °F /  -15.1 °C 1022.9 in /  34635.4 hPa SE 5.6 mph /  9 km/h 5.6 mph /  9 km/h 47 % 0.0 in /  0 mm
15:22 16.2 °F /  -8.8 °C 4.9 °F /  -15.1 °C 1022.9 in /  34635.4 hPa ENE 3.7 mph /  6 km/h 3.7 mph /  6 km/h 47 % 0.0 in /  0 mm
15:32 16.5 °F /  -8.6 °C 5.2 °F /  -14.9 °C 1022.9 in /  34635.4 hPa SSE 1.9 mph /  3.1 km/h   47 % 0.0 in /  0 mm
15:37 16.5 °F /  -8.6 °C 5.4 °F /  -14.8 °C 1022.9 in /  34635.4 hPa Calm     48 % 0.0 in /  0 mm
15:47 16.4 °F /  -8.7 °C 5.1 °F /  -14.9 °C 1022.9 in /  34635.4 hPa East 1.9 mph /  3.1 km/h   47 % 0.0 in /  0 mm
15:52 16.6 °F /  -8.6 °C 5.2 °F /  -14.9 °C 1022.9 in /  34635.4 hPa East 2.6 mph /  4.2 km/h 2.6 mph /  4.2 km/h 47 % 0.0 in /  0 mm
15:57 16.6 °F /  -8.6 °C 5.2 °F /  -14.9 °C 1022.9 in /  34635.4 hPa Calm     47 % 0.0 in /  0 mm
16:02 16.6 °F /  -8.6 °C 5.2 °F /  -14.9 °C 1022.9 in /  34635.4 hPa NW 2.6 mph /  4.2 km/h 2.6 mph /  4.2 km/h 47 % 0.0 in /  0 mm
16:12 16.9 °F /  -8.4 °C 5.5 °F /  -14.7 °C 1022.9 in /  34635.4 hPa WSW 3.7 mph /  6 km/h 3.7 mph /  6 km/h 47 % 0.0 in /  0 mm
16:27 17.3 °F /  -8.2 °C 5.6 °F /  -14.7 °C 1022.9 in /  34635.4 hPa SW 3.9 mph /  6.3 km/h 3.9 mph /  6.3 km/h 46 % 0.0 in /  0 mm
16:42 17.3 °F /  -8.2 °C 5.2 °F /  -14.9 °C 1021.9 in /  34601.5 hPa SW 1.9 mph /  3.1 km/h   45 % 0.0 in /  0 mm
16:47 17.0 °F /  -8.3 °C 4.9 °F /  -15.1 °C 1021.9 in /  34601.5 hPa Calm     45 % 0.0 in /  0 mm
16:52 17.0 °F /  -8.3 °C 4.9 °F /  -15.1 °C 1021.9 in /  34601.5 hPa SW 1.9 mph /  3.1 km/h 1.9 mph /  3.1 km/h 45 % 0.0 in /  0 mm
16:57 17.0 °F /  -8.3 °C 4.9 °F /  -15.1 °C 1021.9 in /  34601.5 hPa SW 1.9 mph /  3.1 km/h 1.9 mph /  3.1 km/h 45 % 0.0 in /  0 mm
17:02 16.8 °F /  -8.4 °C 5.4 °F /  -14.8 °C 1022.9 in /  34635.4 hPa Calm     47 % 0.0 in /  0 mm
17:07 16.5 °F /  -8.6 °C 5.4 °F /  -14.8 °C 1022.9 in /  34635.4 hPa WSW 3.7 mph /  6 km/h 3.7 mph /  6 km/h 48 % 0.0 in /  0 mm
17:17 15.4 °F /  -9.2 °C 4.4 °F /  -15.3 °C 1022.9 in /  34635.4 hPa Calm     48 % 0.0 in /  0 mm
17:27 14.9 °F /  -9.5 °C 4.0 °F /  -15.6 °C 1022.9 in /  34635.4 hPa Calm     48 % 0.0 in /  0 mm
17:32 14.6 °F /  -9.7 °C 3.7 °F /  -15.7 °C 1022.9 in /  34635.4 hPa WSW 3.7 mph /  6 km/h 3.7 mph /  6 km/h 48 % 0.0 in /  0 mm
17:37 14.3 °F /  -9.8 °C 3.4 °F /  -15.9 °C 1022.9 in /  34635.4 hPa WSW 3.7 mph /  6 km/h 3.7 mph /  6 km/h 48 % 0.0 in /  0 mm
17:47 13.9 °F /  -10.1 °C 3.1 °F /  -16.1 °C 1022.9 in /  34635.4 hPa West 3.7 mph /  6 km/h 3.7 mph /  6 km/h 48 % 0.0 in /  0 mm
17:52 13.7 °F /  -10.2 °C 2.9 °F /  -16.2 °C 1022.9 in /  34635.4 hPa WSW 4.7 mph /  7.6 km/h 4.7 mph /  7.6 km/h 48 % 0.0 in /  0 mm
17:57 13.5 °F /  -10.3 °C 2.7 °F /  -16.3 °C 1022.9 in /  34635.4 hPa SW 5.6 mph /  9 km/h 5.6 mph /  9 km/h 48 % 0.0 in /  0 mm
18:07 13.3 °F /  -10.4 °C 2.8 °F /  -16.2 °C 1021.9 in /  34601.5 hPa SW 3.9 mph /  6.3 km/h 3.9 mph /  6.3 km/h 49 % 0.0 in /  0 mm
18:12 13.2 °F /  -10.4 °C 2.7 °F /  -16.3 °C 1021.9 in /  34601.5 hPa WSW 3.7 mph /  6 km/h 3.7 mph /  6 km/h 49 % 0.0 in /  0 mm
18:17 13.1 °F /  -10.5 °C 2.6 °F /  -16.3 °C 1021.9 in /  34601.5 hPa West 3.7 mph /  6 km/h 3.7 mph /  6 km/h 49 % 0.0 in /  0 mm
18:22 13.0 °F /  -10.6 °C 2.5 °F /  -16.4 °C 1021.9 in /  34601.5 hPa West 5.6 mph /  9 km/h 5.6 mph /  9 km/h 49 % 0.0 in /  0 mm
18:27 12.8 °F /  -10.7 °C 2.3 °F /  -16.5 °C 1021.9 in /  34601.5 hPa West 5.6 mph /  9 km/h 5.6 mph /  9 km/h 49 % 0.0 in /  0 mm
18:32 12.8 °F /  -10.7 °C 2.3 °F /  -16.5 °C 1021.9 in /  34601.5 hPa WSW 5.6 mph /  9 km/h 5.6 mph /  9 km/h 49 % 0.0 in /  0 mm
18:37 12.7 °F /  -10.7 °C 2.2 °F /  -16.6 °C 1021.9 in /  34601.5 hPa West 5.0 mph /  8 km/h 5.0 mph /  8 km/h 49 % 0.0 in /  0 mm
18:42 12.7 °F /  -10.7 °C 2.2 °F /  -16.6 °C 1021.9 in /  34601.5 hPa WSW 3.9 mph /  6.3 km/h 3.9 mph /  6.3 km/h 49 % 0.0 in /  0 mm
18:47 12.6 °F /  -10.8 °C 2.2 °F /  -16.6 °C 1021.9 in /  34601.5 hPa West 5.6 mph /  9 km/h 5.6 mph /  9 km/h 49 % 0.0 in /  0 mm
18:57 12.4 °F /  -10.9 °C 1.9 °F /  -16.7 °C 1021.9 in /  34601.5 hPa WSW 5.3 mph /  8.5 km/h 5.3 mph /  8.5 km/h 49 % 0.0 in /  0 mm
19:02 12.3 °F /  -10.9 °C 2.2 °F /  -16.6 °C 1021.9 in /  34601.5 hPa SW 3.7 mph /  6 km/h 3.7 mph /  6 km/h 50 % 0.0 in /  0 mm
19:13 12.1 °F /  -11.1 °C 2.0 °F /  -16.7 °C 1021.9 in /  34601.5 hPa WSW 3.9 mph /  6.3 km/h 3.9 mph /  6.3 km/h 50 % 0.0 in /  0 mm
19:33 11.7 °F /  -11.3 °C 1.6 °F /  -16.9 °C 1022.9 in /  34635.4 hPa SW 3.7 mph /  6 km/h 3.7 mph /  6 km/h 50 % 0.0 in /  0 mm
19:38 11.6 °F /  -11.3 °C 1.5 °F /  -16.9 °C 1022.9 in /  34635.4 hPa SW 2.3 mph /  3.7 km/h 2.3 mph /  3.7 km/h 50 % 0.0 in /  0 mm
19:43 11.5 °F /  -11.4 °C 1.7 °F /  -16.8 °C 1022.9 in /  34635.4 hPa Calm     51 % 0.0 in /  0 mm
19:45 11.5 °F /  -11.4 °C 1.7 °F /  -16.8 °C 1022.9 in /  34635.4 hPa Calm     51 % 0.0 in /  0 mm
20:00 11.2 °F /  -11.6 °C 1.4 °F /  -17 °C 1022.9 in /  34635.4 hPa Calm     51 % 0.0 in /  0 mm
20:10 11.4 °F /  -11.4 °C 1.6 °F /  -16.9 °C 1022.9 in /  34635.4 hPa WSW 3.7 mph /  6 km/h 3.7 mph /  6 km/h 51 % 0.0 in /  0 mm
20:20 11.2 °F /  -11.6 °C 1.4 °F /  -17 °C 1022.9 in /  34635.4 hPa Calm     51 % 0.0 in /  0 mm
20:25 11.1 °F /  -11.6 °C 1.6 °F /  -16.9 °C 1022.9 in /  34635.4 hPa Calm     52 % 0.0 in /  0 mm
20:40 10.5 °F /  -11.9 °C 1.1 °F /  -17.2 °C 1022.9 in /  34635.4 hPa Calm     52 % 0.0 in /  0 mm
20:45 10.4 °F /  -12 °C 0.9 °F /  -17.3 °C 1022.9 in /  34635.4 hPa Calm     52 % 0.0 in /  0 mm
20:50 10.2 °F /  -12.1 °C 0.8 °F /  -17.3 °C 1022.9 in /  34635.4 hPa Calm     52 % 0.0 in /  0 mm
20:55 10.2 °F /  -12.1 °C 1.1 °F /  -17.2 °C 1022.9 in /  34635.4 hPa Calm     53 % 0.0 in /  0 mm
21:00 10.1 °F /  -12.2 °C 0.9 °F /  -17.3 °C 1022.9 in /  34635.4 hPa WNW 2.3 mph /  3.7 km/h 2.3 mph /  3.7 km/h 53 % 0.0 in /  0 mm
21:05 10.2 °F /  -12.1 °C 1.1 °F /  -17.2 °C 1022.9 in /  34635.4 hPa SW 3.7 mph /  6 km/h 3.7 mph /  6 km/h 53 % 0.0 in /  0 mm
21:16 10.0 °F /  -12.2 °C 0.8 °F /  -17.3 °C 1022.9 in /  34635.4 hPa WSW 1.9 mph /  3.1 km/h   53 % 0.0 in /  0 mm
21:31 9.8 °F /  -12.3 °C 0.7 °F /  -17.4 °C 1023.9 in /  34669.3 hPa WSW 1.9 mph /  3.1 km/h   53 % 0.0 in /  0 mm
21:36 9.7 °F /  -12.4 °C 0.6 °F /  -17.4 °C 1022.9 in /  34635.4 hPa Calm     53 % 0.0 in /  0 mm
21:41 9.6 °F /  -12.4 °C 0.5 °F /  -17.5 °C 1022.9 in /  34635.4 hPa Calm     53 % 0.0 in /  0 mm
21:46 9.4 °F /  -12.6 °C 0.3 °F /  -17.6 °C 1022.9 in /  34635.4 hPa WSW 3.7 mph /  6 km/h 3.7 mph /  6 km/h 53 % 0.0 in /  0 mm
21:51 9.3 °F /  -12.6 °C 0.4 °F /  -17.6 °C 1023.9 in /  34669.3 hPa West 3.7 mph /  6 km/h   54 % 0.0 in /  0 mm
21:56 9.2 °F /  -12.7 °C 0.4 °F /  -17.6 °C 1023.9 in /  34669.3 hPa Calm     54 % 0.0 in /  0 mm
22:01 9.0 °F /  -12.8 °C 0.2 °F /  -17.7 °C 1023.9 in /  34669.3 hPa Calm     54 % 0.0 in /  0 mm
22:11 8.9 °F /  -12.8 °C 0.1 °F /  -17.7 °C 1022.9 in /  34635.4 hPa Calm     54 % 0.0 in /  0 mm
22:31 8.8 °F /  -12.9 °C 0.2 °F /  -17.7 °C 1022.9 in /  34635.4 hPa Calm     55 % 0.0 in /  0 mm
22:36 8.7 °F /  -12.9 °C 0.2 °F /  -17.7 °C 1022.9 in /  34635.4 hPa Calm     55 % 0.0 in /  0 mm
22:41 8.6 °F /  -13 °C 0.1 °F /  -17.7 °C 1022.9 in /  34635.4 hPa Calm     55 % 0.0 in /  0 mm
22:46 8.5 °F /  -13.1 °C -0.1 °F /  -17.8 °C 1022.9 in /  34635.4 hPa Calm     55 % 0.0 in /  0 mm
22:51 8.5 °F /  -13.1 °C -0.1 °F /  -17.8 °C 1023.9 in /  34669.3 hPa Calm     55 % 0.0 in /  0 mm
23:01 8.6 °F /  -13 °C 0.3 °F /  -17.6 °C 1023.9 in /  34669.3 hPa Calm     56 % 0.0 in /  0 mm
23:06 8.5 °F /  -13.1 °C 0.2 °F /  -17.7 °C 1022.9 in /  34635.4 hPa Calm     56 % 0.0 in /  0 mm
23:11 8.4 °F /  -13.1 °C 0.1 °F /  -17.7 °C 1022.9 in /  34635.4 hPa Calm     56 % 0.0 in /  0 mm
23:16 8.3 °F /  -13.2 °C 0.3 °F /  -17.6 °C 1022.9 in /  34635.4 hPa NNE 2.6 mph /  4.2 km/h 2.6 mph /  4.2 km/h 57 % 0.0 in /  0 mm
23:21 8.1 °F /  -13.3 °C 0.1 °F /  -17.7 °C 1022.9 in /  34635.4 hPa NNE 1.9 mph /  3.1 km/h   57 % 0.0 in /  0 mm
23:26 7.9 °F /  -13.4 °C -0.1 °F /  -17.8 °C 1022.9 in /  34635.4 hPa WSW 3.7 mph /  6 km/h 3.7 mph /  6 km/h 57 % 0.0 in /  0 mm
23:36 7.5 °F /  -13.6 °C -0.2 °F /  -17.9 °C 1023.9 in /  34669.3 hPa WSW 2.6 mph /  4.2 km/h   58 % 0.0 in /  0 mm
23:40 6.1 °F /  -14.4 °C -1.1 °F /  -18.4 °C 1020.9 in /  34567.7 hPa NNW 1.6 mph /  2.6 km/h 3.2 mph /  5.1 km/h 60 % 0.0 in /  0 mm
23:41 7.4 °F /  -13.7 °C -0.3 °F /  -17.9 °C 1023.9 in /  34669.3 hPa Calm     58 % 0.0 in /  0 mm
23:50 6.1 °F /  -14.4 °C -1.1 °F /  -18.4 °C 1020.9 in /  34567.7 hPa NNW 1.6 mph /  2.6 km/h 3.2 mph /  5.1 km/h 60 % 0.0 in /  0 mm
23:52 7.2 °F /  -13.8 °C -0.3 °F /  -17.9 °C 1023.9 in /  34669.3 hPa Calm     59 % 0.0 in /  0 mm
23:57 7.1 °F /  -13.8 °C -0.4 °F /  -18 °C 1023.9 in /  34669.3 hPa Calm     59 % 0.0 in /  0 mm
23:58 7.1 °F /  -13.8 °C -0.6 °F /  -18.1 °C 1023.9 in /  34669.3 hPa Calm     58 % 0.0 in /  0 mm
Meteo Sesrovires
Elogis d' Weather Underground - 1.25 mb

Guio original per  Jim McMurry - jmcmurry@mwt.net Adaptat per a la plantilla per  Wim van der Kuil - Leuven-Template.eu

Trobareu la nostra informacio del temps tambe a:

Weather Underground

AWEKAS